Time;durP1;ratioP1;P1;durP2;ratioP2;P2;SDS_P1;SDS_P2;PMS_P1;PMS_P2;Temp;Humidity;BMP_temperature;BMP_pressure;BME280_temperature;BME280_humidity;BME280_pressure;Samples;Min_cycle;Max_cycle;Signal;HPM_P1;HPM_P2
2023/07/30 00:00:51;;;;;;;5.90;3.88;;;;;;;;;;8390261;28;20511;-88
2023/07/30 00:05:14;;;;;;;11.45;4.10;;;;;;;;;;8385286;28;20053;-94
2023/07/30 00:09:17;;;;;;;6.95;4.40;;;;;;;;;;8391329;28;20477;-88
2023/07/30 00:13:19;;;;;;;8.20;4.63;;;;;;;;;;8383038;28;20094;-90
2023/07/30 00:17:24;;;;;;;4.97;3.70;;;;;;;;;;8398092;28;20055;-83
2023/07/30 00:21:27;;;;;;;5.32;3.63;;;;;;;;;;8372686;28;20500;-82
2023/07/30 00:25:30;;;;;;;6.05;3.47;;;;;;;;;;8385482;28;20128;-89
2023/07/30 00:29:32;;;;;;;6.93;3.75;;;;;;;;;;8393083;28;20131;-83
2023/07/30 00:33:37;;;;;;;4.80;3.40;;;;;;;;;;8381454;28;20127;-89
2023/07/30 00:37:39;;;;;;;4.57;3.25;;;;;;;;;;8387503;28;20132;-82
2023/07/30 00:41:42;;;;;;;5.57;3.38;;;;;;;;;;8376833;28;20059;-93
2023/07/30 00:45:46;;;;;;;5.43;3.80;;;;;;;;;;8398037;28;20044;-94
2023/07/30 00:49:50;;;;;;;8.18;3.80;;;;;;;;;;8384468;28;20469;-94
2023/07/30 00:53:53;;;;;;;6.57;3.17;;;;;;;;;;8374807;28;20068;-85
2023/07/30 00:57:57;;;;;;;7.15;3.65;;;;;;;;;;8390753;28;20136;-93
2023/07/30 01:02:02;;;;;;;5.65;3.20;;;;;;;;;;8371780;28;20040;-88
2023/07/30 01:06:06;;;;;;;4.85;3.00;;;;;;;;;;8383865;28;20128;-84
2023/07/30 01:10:09;;;;;;;5.10;3.33;;;;;;;;;;8399207;28;20110;-86
2023/07/30 01:14:15;;;;;;;4.93;3.25;;;;;;;;;;8377153;28;20041;-89
2023/07/30 01:18:18;;;;;;;4.82;2.80;;;;;;;;;;8388922;28;20052;-90
2023/07/30 01:22:25;;;;;;;6.00;2.88;;;;;;;;;;8384580;28;20467;-94
2023/07/30 01:26:33;;;;;;;5.28;3.10;;;;;;;;;;8373674;28;20117;-83
2023/07/30 01:30:40;;;;;;;6.00;3.13;;;;;;;;;;8376969;28;20128;-84
2023/07/30 01:34:45;;;;;;;4.28;3.03;;;;;;;;;;8399256;28;20045;-90
2023/07/30 01:38:51;;;;;;;4.35;2.70;;;;;;;;;;8376919;28;20037;-94
2023/07/30 01:42:54;;;;;;;5.03;2.80;;;;;;;;;;8380396;28;20044;-85
2023/07/30 01:46:57;;;;;;;5.45;2.83;;;;;;;;;;8378452;28;20141;-82
2023/07/30 01:51:00;;;;;;;7.15;3.17;;;;;;;;;;8395189;28;20044;-91
2023/07/30 01:55:05;;;;;;;4.85;3.00;;;;;;;;;;8389125;28;20052;-82
2023/07/30 01:59:08;;;;;;;8.95;3.10;;;;;;;;;;8396107;28;20128;-85
2023/07/30 02:03:11;;;;;;;5.57;3.20;;;;;;;;;;8383075;28;20545;-94
2023/07/30 02:07:14;;;;;;;4.93;3.28;;;;;;;;;;8383583;28;20097;-90
2023/07/30 02:11:18;;;;;;;5.13;3.30;;;;;;;;;;8377584;28;20119;-94
2023/07/30 02:15:21;;;;;;;5.72;3.47;;;;;;;;;;8400732;28;20438;-85
2023/07/30 02:19:24;;;;;;;5.57;3.30;;;;;;;;;;8378365;28;20124;-95
2023/07/30 02:23:29;;;;;;;6.13;3.10;;;;;;;;;;8389890;28;20170;-81
2023/07/30 02:27:33;;;;;;;6.43;3.25;;;;;;;;;;8379410;28;20457;-94
2023/07/30 02:31:36;;;;;;;5.47;2.92;;;;;;;;;;8385999;28;20041;-88
2023/07/30 02:35:39;;;;;;;5.47;3.28;;;;;;;;;;8373563;28;20567;-93
2023/07/30 02:39:42;;;;;;;5.07;3.05;;;;;;;;;;8378948;28;20040;-83
2023/07/30 02:43:46;;;;;;;7.88;3.40;;;;;;;;;;8377432;28;20548;-82
2023/07/30 02:47:49;;;;;;;5.53;3.33;;;;;;;;;;8370279;28;20049;-94
2023/07/30 02:51:52;;;;;;;5.90;3.50;;;;;;;;;;8391504;28;20045;-94
2023/07/30 02:55:54;;;;;;;7.07;3.65;;;;;;;;;;8389314;28;20484;-81
2023/07/30 02:59:59;;;;;;;6.18;4.15;;;;;;;;;;8402162;28;20116;-93
2023/07/30 03:04:02;;;;;;;6.18;4.15;;;;;;;;;;8379698;28;20091;-93
2023/07/30 03:08:05;;;;;;;19.42;7.32;;;;;;;;;;8392410;28;20447;-82
2023/07/30 03:12:09;;;;;;;16.88;7.70;;;;;;;;;;8394511;28;20040;-80
2023/07/30 03:16:13;;;;;;;14.57;6.85;;;;;;;;;;8372352;28;20048;-91
2023/07/30 03:20:17;;;;;;;10.07;5.13;;;;;;;;;;8386781;28;20068;-92
2023/07/30 03:24:19;;;;;;;10.38;4.93;;;;;;;;;;8398742;28;20049;-86
2023/07/30 03:28:22;;;;;;;5.82;3.83;;;;;;;;;;8386951;28;20480;-90
2023/07/30 03:32:26;;;;;;;7.15;4.65;;;;;;;;;;8397395;28;20128;-81
2023/07/30 03:36:29;;;;;;;9.15;5.05;;;;;;;;;;8410295;28;20517;-93
2023/07/30 03:40:32;;;;;;;12.30;5.85;;;;;;;;;;8389076;28;20049;-91
2023/07/30 03:44:35;;;;;;;10.30;5.32;;;;;;;;;;8403073;28;20056;-84
2023/07/30 03:48:39;;;;;;;12.02;6.78;;;;;;;;;;8393475;28;20457;-88
2023/07/30 03:52:42;;;;;;;9.80;5.18;;;;;;;;;;8385731;28;20060;-92
2023/07/30 03:56:45;;;;;;;8.65;4.85;;;;;;;;;;8408632;28;20115;-82
2023/07/30 04:00:48;;;;;;;7.03;3.50;;;;;;;;;;8411900;28;20092;-88
2023/07/30 04:04:52;;;;;;;13.18;4.93;;;;;;;;;;8384728;28;20048;-82
2023/07/30 04:08:55;;;;;;;5.82;3.65;;;;;;;;;;8398451;28;20080;-82
2023/07/30 04:12:58;;;;;;;7.35;3.60;;;;;;;;;;8379289;28;20120;-88
2023/07/30 04:17:00;;;;;;;6.25;4.05;;;;;;;;;;8394326;28;20111;-92
2023/07/30 04:21:05;;;;;;;7.45;4.82;;;;;;;;;;8398697;28;20040;-87
2023/07/30 04:25:10;;;;;;;6.72;4.40;;;;;;;;;;8387719;28;20122;-93
2023/07/30 04:29:13;;;;;;;9.25;4.90;;;;;;;;;;8400103;28;20553;-91
2023/07/30 04:33:17;;;;;;;7.68;4.93;;;;;;;;;;8397623;28;20056;-86
2023/07/30 04:37:21;;;;;;;7.85;4.68;;;;;;;;;;8378535;28;20037;-90
2023/07/30 04:41:24;;;;;;;7.57;4.85;;;;;;;;;;8382824;28;20123;-83
2023/07/30 04:45:27;;;;;;;9.55;5.75;;;;;;;;;;8376949;28;20065;-85
2023/07/30 04:49:30;;;;;;;8.48;5.90;;;;;;;;;;8364684;28;20049;-85
2023/07/30 04:53:34;;;;;;;8.70;5.75;;;;;;;;;;8385776;28;20140;-88
2023/07/30 04:57:37;;;;;;;8.63;5.78;;;;;;;;;;8384832;28;20048;-82
2023/07/30 05:01:40;;;;;;;11.60;5.72;;;;;;;;;;8420326;28;20055;-85
2023/07/30 05:05:43;;;;;;;10.68;5.28;;;;;;;;;;8400119;28;20053;-90
2023/07/30 05:09:47;;;;;;;12.13;5.57;;;;;;;;;;8410939;28;20194;-86
2023/07/30 05:13:50;;;;;;;11.45;5.95;;;;;;;;;;8383744;28;20127;-93
2023/07/30 05:17:53;;;;;;;10.77;5.72;;;;;;;;;;8397232;28;20382;-83
2023/07/30 05:21:55;;;;;;;10.07;4.93;;;;;;;;;;8380466;28;20055;-87
2023/07/30 05:26:00;;;;;;;10.15;5.05;;;;;;;;;;8387472;28;20131;-93
2023/07/30 05:30:03;;;;;;;11.80;5.43;;;;;;;;;;8371249;28;20052;-92
2023/07/30 05:34:06;;;;;;;10.43;5.65;;;;;;;;;;8397090;28;20067;-92
2023/07/30 05:38:09;;;;;;;12.23;6.47;;;;;;;;;;8378040;28;20131;-83
2023/07/30 05:42:13;;;;;;;11.15;5.47;;;;;;;;;;8367931;28;20397;-86
2023/07/30 05:46:16;;;;;;;12.85;6.32;;;;;;;;;;8400018;28;20040;-85
2023/07/30 05:50:19;;;;;;;11.60;5.60;;;;;;;;;;8383761;28;20048;-85
2023/07/30 05:54:22;;;;;;;16.13;6.25;;;;;;;;;;8399575;28;20044;-84
2023/07/30 05:58:27;;;;;;;13.60;5.28;;;;;;;;;;8381034;28;20076;-85
2023/07/30 06:02:30;;;;;;;14.38;5.13;;;;;;;;;;8396480;28;20492;-91
2023/07/30 06:06:33;;;;;;;8.63;5.00;;;;;;;;;;8379971;28;20072;-92
2023/07/30 06:10:37;;;;;;;9.30;5.18;;;;;;;;;;8382448;28;20127;-90
2023/07/30 06:14:41;;;;;;;10.38;4.65;;;;;;;;;;8387879;28;20097;-85
2023/07/30 06:18:44;;;;;;;13.07;4.68;;;;;;;;;;8398654;28;20052;-91
2023/07/30 06:22:47;;;;;;;8.90;4.20;;;;;;;;;;8388981;28;20040;-85
2023/07/30 06:26:50;;;;;;;7.30;3.90;;;;;;;;;;8395150;28;20076;-90
2023/07/30 06:30:55;;;;;;;10.82;4.35;;;;;;;;;;8405027;28;20155;-84
2023/07/30 06:34:58;;;;;;;9.57;4.30;;;;;;;;;;8415767;28;20044;-88
2023/07/30 06:39:01;;;;;;;7.22;3.33;;;;;;;;;;8390140;28;20036;-86
2023/07/30 06:43:04;;;;;;;4.18;2.90;;;;;;;;;;8388918;28;20044;-92
2023/07/30 06:47:08;;;;;;;3.65;2.90;;;;;;;;;;8401103;28;20062;-84
2023/07/30 06:51:12;;;;;;;6.43;3.38;;;;;;;;;;8410343;28;20147;-85
2023/07/30 06:55:15;;;;;;;5.00;2.83;;;;;;;;;;8412656;28;20051;-91
2023/07/30 06:59:18;;;;;;;6.15;2.47;;;;;;;;;;8403239;28;20047;-89
2023/07/30 07:03:23;;;;;;;4.15;3.00;;;;;;;;;;8381471;28;20129;-88
2023/07/30 07:07:26;;;;;;;3.53;2.60;;;;;;;;;;8375791;28;20082;-89
2023/07/30 07:11:29;;;;;;;5.45;2.95;;;;;;;;;;8408213;28;20055;-84
2023/07/30 07:15:32;;;;;;;9.15;3.03;;;;;;;;;;8394998;28;20140;-85
2023/07/30 07:19:36;;;;;;;5.57;2.60;;;;;;;;;;8389940;28;20548;-84
2023/07/30 07:23:39;;;;;;;4.22;2.38;;;;;;;;;;8389437;28;20093;-84
2023/07/30 07:27:42;;;;;;;4.60;2.70;;;;;;;;;;8385121;28;20093;-86
2023/07/30 07:31:46;;;;;;;5.75;2.30;;;;;;;;;;8408502;28;20067;-88
2023/07/30 07:35:51;;;;;;;5.82;2.90;;;;;;;;;;8411797;28;20055;-89
2023/07/30 07:39:54;;;;;;;6.28;2.63;;;;;;;;;;8385744;28;20045;-91
2023/07/30 07:43:57;;;;;;;4.40;2.17;;;;;;;;;;8399280;28;20055;-86
2023/07/30 07:47:59;;;;;;;3.97;2.40;;;;;;;;;;8395691;28;20048;-86
2023/07/30 07:52:04;;;;;;;3.80;2.30;;;;;;;;;;8405904;28;20128;-90
2023/07/30 07:56:08;;;;;;;3.17;2.30;;;;;;;;;;8399515;28;20091;-83
2023/07/30 08:00:12;;;;;;;4.78;2.28;;;;;;;;;;8423204;28;20049;-89
2023/07/30 08:04:15;;;;;;;3.85;2.03;;;;;;;;;;8371022;28;20139;-92
2023/07/30 08:08:19;;;;;;;4.60;2.47;;;;;;;;;;8400122;28;20100;-91
2023/07/30 08:12:22;;;;;;;4.95;2.58;;;;;;;;;;8390338;28;20524;-90
2023/07/30 08:16:26;;;;;;;4.00;2.20;;;;;;;;;;8385669;28;20047;-91
2023/07/30 08:20:28;;;;;;;3.92;2.13;;;;;;;;;;8420506;28;20076;-87
2023/07/30 08:24:33;;;;;;;4.88;2.75;;;;;;;;;;8407509;28;20404;-91
2023/07/30 08:28:36;;;;;;;4.50;2.58;;;;;;;;;;8424679;28;20044;-92
2023/07/30 08:32:39;;;;;;;1.90;1.75;;;;;;;;;;8387564;28;20041;-93
2023/07/30 08:36:42;;;;;;;3.80;2.08;;;;;;;;;;8374298;28;20052;-86
2023/07/30 08:40:46;;;;;;;3.97;1.70;;;;;;;;;;8391097;28;20133;-86
2023/07/30 08:44:49;;;;;;;2.80;1.95;;;;;;;;;;8388366;28;20048;-84
2023/07/30 08:48:52;;;;;;;2.92;2.13;;;;;;;;;;8404769;28;20047;-85
2023/07/30 08:52:56;;;;;;;4.57;2.00;;;;;;;;;;8406580;28;20049;-96
2023/07/30 08:57:01;;;;;;;3.47;1.85;;;;;;;;;;8406756;28;20424;-86
2023/07/30 09:01:09;;;;;;;2.63;2.20;;;;;;;;;;8392980;28;20134;-95
2023/07/30 09:16:42;;;;;;;3.38;2.10;;;;;;;;;;8371324;27;4071281;-92
2023/07/30 09:20:49;;;;;;;7.63;2.35;;;;;;;;;;8497859;28;20051;-93
2023/07/30 09:25:02;;;;;;;4.70;2.42;;;;;;;;;;8474133;28;20040;-90
2023/07/30 09:29:10;;;;;;;3.92;2.60;;;;;;;;;;8468633;28;20490;-89
2023/07/30 09:33:21;;;;;;;4.13;2.55;;;;;;;;;;8474725;28;20507;-91
2023/07/30 09:37:25;;;;;;;4.15;2.40;;;;;;;;;;8461706;28;20082;-89
2023/07/30 09:41:32;;;;;;;8.75;2.60;;;;;;;;;;8473288;28;20058;-92
2023/07/30 09:45:45;;;;;;;2.88;2.10;;;;;;;;;;8487439;28;20478;-91
2023/07/30 09:49:56;;;;;;;3.65;2.30;;;;;;;;;;8484969;28;20044;-88
2023/07/30 09:54:03;;;;;;;5.15;2.38;;;;;;;;;;8471917;28;20039;-90
2023/07/30 09:58:11;;;;;;;2.70;2.20;;;;;;;;;;8474338;28;20059;-91
2023/07/30 10:02:20;;;;;;;3.03;2.40;;;;;;;;;;8469968;28;20074;-90
2023/07/30 10:06:57;;;;;;;2.65;2.20;;;;;;;;;;8461442;28;20044;-90
2023/07/30 10:11:07;;;;;;;3.10;2.25;;;;;;;;;;8464750;28;20049;-89
2023/07/30 10:15:12;;;;;;;4.10;2.70;;;;;;;;;;8481523;28;20162;-90
2023/07/30 10:19:31;;;;;;;3.20;2.33;;;;;;;;;;8471750;28;20035;-91
2023/07/30 10:23:36;;;;;;;3.60;2.38;;;;;;;;;;8489414;28;20050;-90
2023/07/30 10:27:49;;;;;;;5.63;2.15;;;;;;;;;;8490871;28;20070;-90
2023/07/30 10:37:04;;;;;;;4.30;2.50;;;;;;;;;;8469619;28;20056;-89
2023/07/30 10:41:20;;;;;;;5.93;2.75;;;;;;;;;;8484237;28;20043;-91
2023/07/30 10:45:31;;;;;;;5.78;2.80;;;;;;;;;;8457695;28;20452;-89
2023/07/30 10:49:38;;;;;;;3.90;2.10;;;;;;;;;;8462649;28;20543;-88
2023/07/30 10:53:43;;;;;;;3.90;2.45;;;;;;;;;;8475637;28;20046;-88
2023/07/30 10:57:49;;;;;;;3.42;2.20;;;;;;;;;;8475450;28;20091;-89
2023/07/30 11:01:55;;;;;;;2.88;2.05;;;;;;;;;;8459783;28;20058;-88
2023/07/30 11:05:59;;;;;;;3.90;2.15;;;;;;;;;;8461625;28;20055;-89
2023/07/30 11:10:02;;;;;;;5.00;2.30;;;;;;;;;;8477962;28;20475;-89
2023/07/30 11:28:41;;;;;;;5.00;2.75;;;;;;;;;;8482691;27;1510108;-90
2023/07/30 11:32:44;;;;;;;2.78;2.20;;;;;;;;;;8508621;27;20594;-84
2023/07/30 11:36:47;;;;;;;3.08;2.10;;;;;;;;;;8504133;27;20126;-83
2023/07/30 11:40:52;;;;;;;3.50;2.22;;;;;;;;;;8507091;27;20043;-83
2023/07/30 11:44:56;;;;;;;2.65;2.13;;;;;;;;;;8509613;27;20046;-86
2023/07/30 11:49:13;;;;;;;3.90;2.00;;;;;;;;;;8508152;27;20046;-84
2023/07/30 11:53:16;;;;;;;3.33;2.15;;;;;;;;;;8509945;27;20039;-90
2023/07/30 11:57:19;;;;;;;2.97;2.08;;;;;;;;;;8506306;27;20053;-82
2023/07/30 12:01:25;;;;;;;3.17;2.00;;;;;;;;;;8510353;27;20407;-85
2023/07/30 12:05:40;;;;;;;3.58;2.17;;;;;;;;;;8515213;27;20063;-85
2023/07/30 12:09:43;;;;;;;3.03;2.00;;;;;;;;;;8513516;27;20134;-83
2023/07/30 12:13:46;;;;;;;5.22;2.10;;;;;;;;;;8526634;27;20083;-94
2023/07/30 12:17:50;;;;;;;2.42;1.83;;;;;;;;;;8531439;27;20059;-89
2023/07/30 12:21:53;;;;;;;2.40;1.90;;;;;;;;;;8525819;27;20031;-89
2023/07/30 12:25:56;;;;;;;3.55;2.40;;;;;;;;;;8503804;27;20459;-90
2023/07/30 12:29:59;;;;;;;3.15;2.10;;;;;;;;;;8450490;28;20036;-87
2023/07/30 12:34:03;;;;;;;6.35;2.85;;;;;;;;;;8492311;27;20062;-84
2023/07/30 12:38:06;;;;;;;4.47;2.13;;;;;;;;;;8500234;27;20050;-88
2023/07/30 12:42:09;;;;;;;5.18;2.15;;;;;;;;;;8500178;27;20478;-90
2023/07/30 12:46:12;;;;;;;3.00;2.00;;;;;;;;;;8488085;27;20473;-87
2023/07/30 12:50:16;;;;;;;3.95;2.03;;;;;;;;;;8502415;27;20070;-83
2023/07/30 12:54:19;;;;;;;2.40;2.20;;;;;;;;;;8500810;27;20042;-89
2023/07/30 12:58:22;;;;;;;6.20;2.10;;;;;;;;;;8501166;27;20085;-87
2023/07/30 13:02:25;;;;;;;2.65;1.90;;;;;;;;;;8500870;27;20409;-83
2023/07/30 13:06:29;;;;;;;2.10;1.77;;;;;;;;;;8500569;27;20047;-89
2023/07/30 13:10:32;;;;;;;3.97;1.90;;;;;;;;;;8487476;27;20047;-90
2023/07/30 13:14:35;;;;;;;4.00;2.10;;;;;;;;;;8500986;27;20597;-84
2023/07/30 13:18:40;;;;;;;4.75;2.13;;;;;;;;;;8487306;27;20047;-84
2023/07/30 13:22:47;;;;;;;5.13;2.20;;;;;;;;;;8500296;27;20043;-84
2023/07/30 13:26:50;;;;;;;4.53;2.55;;;;;;;;;;8478910;27;21475;-82
2023/07/30 13:30:53;;;;;;;4.18;2.58;;;;;;;;;;8486363;27;20122;-91
2023/07/30 13:34:57;;;;;;;3.20;2.13;;;;;;;;;;8471950;27;20097;-90
2023/07/30 13:39:02;;;;;;;3.90;2.33;;;;;;;;;;8498180;27;20043;-87
2023/07/30 13:43:05;;;;;;;3.50;2.20;;;;;;;;;;8468350;27;20122;-90
2023/07/30 13:47:10;;;;;;;2.97;2.20;;;;;;;;;;8489256;27;20035;-83
2023/07/30 13:51:13;;;;;;;4.72;2.10;;;;;;;;;;8498710;27;20134;-89
2023/07/30 13:55:19;;;;;;;2.28;2.00;;;;;;;;;;8498667;27;20195;-91
2023/07/30 13:59:23;;;;;;;2.97;2.38;;;;;;;;;;8498618;27;20126;-91
2023/07/30 14:03:27;;;;;;;3.25;2.28;;;;;;;;;;8499058;27;20130;-83
2023/07/30 14:07:31;;;;;;;3.45;2.13;;;;;;;;;;8498345;27;20410;-91
2023/07/30 14:11:37;;;;;;;3.17;2.08;;;;;;;;;;8475567;27;20053;-91
2023/07/30 14:15:40;;;;;;;3.40;2.30;;;;;;;;;;8494144;27;20051;-85
2023/07/30 14:19:44;;;;;;;5.28;2.30;;;;;;;;;;8480430;27;20040;-83
2023/07/30 14:23:47;;;;;;;5.45;2.47;;;;;;;;;;8473286;27;20059;-90
2023/07/30 14:28:24;;;;;;;2.92;2.22;;;;;;;;;;8471056;27;20068;-85
2023/07/30 14:32:28;;;;;;;4.10;2.58;;;;;;;;;;8477167;27;20103;-88
2023/07/30 14:36:32;;;;;;;3.20;2.28;;;;;;;;;;8494861;27;20058;-91
2023/07/30 14:40:36;;;;;;;4.97;2.25;;;;;;;;;;8471300;27;20039;-89
2023/07/30 14:44:41;;;;;;;3.78;2.20;;;;;;;;;;8482426;27;20538;-90
2023/07/30 14:48:44;;;;;;;4.28;2.50;;;;;;;;;;8494866;27;20039;-87
2023/07/30 14:52:48;;;;;;;4.60;2.50;;;;;;;;;;8489354;27;20501;-86
2023/07/30 14:56:52;;;;;;;4.13;2.45;;;;;;;;;;8480450;27;20584;-87
2023/07/30 15:00:57;;;;;;;4.68;2.45;;;;;;;;;;8467229;27;20047;-89
2023/07/30 15:05:01;;;;;;;3.25;2.20;;;;;;;;;;8463603;27;20122;-91
2023/07/30 15:09:07;;;;;;;3.40;2.50;;;;;;;;;;8469579;27;20401;-89
2023/07/30 15:13:10;;;;;;;6.55;2.63;;;;;;;;;;8473534;27;20130;-92
2023/07/30 15:17:15;;;;;;;3.78;2.67;;;;;;;;;;8471358;27;20055;-85
2023/07/30 15:21:19;;;;;;;3.13;2.50;;;;;;;;;;8471076;27;20104;-85
2023/07/30 15:25:22;;;;;;;3.22;2.40;;;;;;;;;;8416393;28;20462;-89
2023/07/30 15:29:25;;;;;;;3.47;2.55;;;;;;;;;;8471183;27;20047;-85
2023/07/30 15:33:30;;;;;;;6.95;3.80;;;;;;;;;;8464406;28;20072;-88
2023/07/30 15:37:34;;;;;;;4.78;3.20;;;;;;;;;;8451613;28;20055;-91
2023/07/30 15:41:37;;;;;;;4.53;3.00;;;;;;;;;;8457740;28;20560;-85
2023/07/30 15:45:43;;;;;;;3.90;2.90;;;;;;;;;;8461416;28;20399;-84
2023/07/30 15:49:49;;;;;;;3.88;2.63;;;;;;;;;;8471346;28;20039;-86
2023/07/30 15:53:53;;;;;;;3.50;2.63;;;;;;;;;;8465193;28;20043;-84
2023/07/30 15:57:58;;;;;;;3.45;2.70;;;;;;;;;;8466497;28;20058;-86
2023/07/30 16:02:01;;;;;;;3.35;2.58;;;;;;;;;;8464634;27;20050;-86
2023/07/30 16:06:06;;;;;;;3.85;2.78;;;;;;;;;;8477263;27;20051;-86
2023/07/30 16:10:11;;;;;;;5.80;2.92;;;;;;;;;;8468301;27;20158;-87
2023/07/30 16:14:14;;;;;;;4.60;2.33;;;;;;;;;;8470881;27;20058;-87
2023/07/30 16:18:18;;;;;;;3.60;2.47;;;;;;;;;;8468749;27;20052;-86
2023/07/30 16:22:23;;;;;;;4.55;2.70;;;;;;;;;;8478077;27;20135;-86
2023/07/30 16:26:27;;;;;;;4.30;2.60;;;;;;;;;;8467661;27;20135;-87
2023/07/30 16:30:32;;;;;;;3.65;2.60;;;;;;;;;;8470223;27;20062;-89
2023/07/30 16:34:36;;;;;;;3.63;2.70;;;;;;;;;;8468410;27;20061;-86
2023/07/30 16:38:42;;;;;;;2.80;2.08;;;;;;;;;;8488032;27;20142;-83
2023/07/30 16:42:46;;;;;;;2.85;1.90;;;;;;;;;;8464715;27;20130;-84
2023/07/30 16:46:50;;;;;;;3.15;2.28;;;;;;;;;;8466408;27;20050;-88
2023/07/30 16:50:54;;;;;;;3.47;2.53;;;;;;;;;;8473310;27;20413;-86
2023/07/30 16:55:00;;;;;;;3.35;2.50;;;;;;;;;;8477175;27;20046;-88
2023/07/30 16:59:05;;;;;;;3.38;2.70;;;;;;;;;;8489922;27;20058;-86
2023/07/30 17:03:09;;;;;;;9.50;3.00;;;;;;;;;;8487775;27;20047;-84
2023/07/30 17:07:13;;;;;;;4.07;2.63;;;;;;;;;;8481143;27;20048;-91
2023/07/30 17:11:18;;;;;;;3.45;2.50;;;;;;;;;;8483760;27;20053;-87
2023/07/30 17:15:22;;;;;;;6.25;2.75;;;;;;;;;;8493372;27;20142;-89
2023/07/30 17:19:26;;;;;;;3.88;2.65;;;;;;;;;;8447942;27;20047;-88
2023/07/30 17:23:31;;;;;;;4.78;2.90;;;;;;;;;;8461422;28;20104;-85
2023/07/30 17:27:36;;;;;;;5.97;4.20;;;;;;;;;;8470370;27;20422;-86
2023/07/30 17:31:41;;;;;;;7.85;4.75;;;;;;;;;;8423742;27;20043;-87
2023/07/30 17:35:45;;;;;;;11.77;5.80;;;;;;;;;;8477773;27;20445;-87
2023/07/30 17:39:49;;;;;;;6.95;4.78;;;;;;;;;;8471850;27;20051;-86
2023/07/30 17:43:55;;;;;;;11.57;6.10;;;;;;;;;;8476110;27;20077;-89
2023/07/30 17:47:58;;;;;;;6.32;4.70;;;;;;;;;;8477084;27;20099;-90
2023/07/30 17:52:02;;;;;;;9.15;6.00;;;;;;;;;;8479347;27;20045;-83
2023/07/30 17:56:06;;;;;;;5.85;4.32;;;;;;;;;;8496596;27;20035;-95
2023/07/30 18:00:14;;;;;;;7.85;3.97;;;;;;;;;;8498922;27;20053;-90
2023/07/30 18:04:18;;;;;;;6.55;4.10;;;;;;;;;;8500139;27;20043;-94
2023/07/30 18:08:22;;;;;;;4.75;3.33;;;;;;;;;;8486090;27;20047;-90
2023/07/30 18:12:28;;;;;;;5.05;3.60;;;;;;;;;;8499545;27;20122;-86
2023/07/30 18:16:33;;;;;;;6.20;3.97;;;;;;;;;;8499490;27;20134;-85
2023/07/30 18:20:36;;;;;;;9.75;4.45;;;;;;;;;;8500585;27;20550;-84
2023/07/30 18:24:41;;;;;;;9.73;3.85;;;;;;;;;;8499251;27;20131;-82
2023/07/30 18:28:45;;;;;;;6.43;4.65;;;;;;;;;;8463934;28;20134;-93
2023/07/30 18:32:50;;;;;;;5.50;3.63;;;;;;;;;;8465095;28;20300;-89
2023/07/30 18:36:54;;;;;;;5.97;3.70;;;;;;;;;;8457018;28;20132;-85
2023/07/30 18:41:03;;;;;;;4.68;3.60;;;;;;;;;;8454193;28;20054;-93
2023/07/30 18:45:07;;;;;;;4.90;3.67;;;;;;;;;;8445538;28;20063;-87
2023/07/30 18:49:12;;;;;;;8.05;3.90;;;;;;;;;;8457089;28;20047;-91
2023/07/30 18:53:16;;;;;;;5.03;3.60;;;;;;;;;;8440352;28;20138;-91
2023/07/30 18:57:20;;;;;;;4.97;3.75;;;;;;;;;;8439624;28;20567;-84
2023/07/30 19:01:25;;;;;;;5.00;3.65;;;;;;;;;;8433650;28;20044;-85
2023/07/30 19:05:30;;;;;;;5.03;3.60;;;;;;;;;;8452267;28;20036;-90
2023/07/30 19:09:34;;;;;;;6.65;3.78;;;;;;;;;;8459402;28;20116;-85
2023/07/30 19:13:38;;;;;;;5.88;3.72;;;;;;;;;;8430834;28;20064;-93
2023/07/30 19:17:42;;;;;;;5.57;3.58;;;;;;;;;;8429393;28;20052;-87
2023/07/30 19:21:50;;;;;;;5.80;3.85;;;;;;;;;;8428803;28;20064;-86
2023/07/30 19:25:55;;;;;;;5.43;3.75;;;;;;;;;;8442812;28;20055;-86
2023/07/30 19:29:59;;;;;;;4.68;3.42;;;;;;;;;;8462100;28;20139;-84
2023/07/30 19:34:10;;;;;;;6.65;4.25;;;;;;;;;;8463001;28;20494;-89
2023/07/30 19:38:16;;;;;;;5.55;3.25;;;;;;;;;;8465775;28;20059;-90
2023/07/30 19:42:19;;;;;;;5.00;3.50;;;;;;;;;;8469337;28;20122;-85
2023/07/30 19:46:22;;;;;;;5.22;3.30;;;;;;;;;;8469491;28;20056;-89
2023/07/30 19:50:27;;;;;;;6.15;3.47;;;;;;;;;;8471643;27;20054;-92
2023/07/30 19:54:35;;;;;;;6.55;3.78;;;;;;;;;;8485536;27;20047;-85
2023/07/30 19:58:39;;;;;;;6.32;3.15;;;;;;;;;;8487170;27;20126;-91
2023/07/30 20:02:44;;;;;;;5.22;3.22;;;;;;;;;;8479657;27;20138;-93
2023/07/30 20:06:52;;;;;;;6.35;3.75;;;;;;;;;;8503591;27;20051;-92
2023/07/30 20:11:01;;;;;;;5.53;3.72;;;;;;;;;;8503913;27;20049;-96
2023/07/30 20:15:05;;;;;;;5.38;3.30;;;;;;;;;;8490167;27;20447;-94
2023/07/30 20:19:09;;;;;;;5.97;4.00;;;;;;;;;;8500669;27;20082;-87
2023/07/30 20:23:13;;;;;;;5.63;3.67;;;;;;;;;;8496830;27;20467;-92
2023/07/30 20:27:18;;;;;;;7.38;4.30;;;;;;;;;;8483517;27;20076;-83
2023/07/30 20:31:22;;;;;;;6.50;4.13;;;;;;;;;;8476006;27;20059;-82
2023/07/30 20:35:26;;;;;;;6.63;4.82;;;;;;;;;;8494231;27;20574;-95
2023/07/30 20:39:30;;;;;;;6.72;5.18;;;;;;;;;;8487136;27;20135;-82
2023/07/30 20:43:36;;;;;;;5.78;4.57;;;;;;;;;;8489951;27;20054;-83
2023/07/30 20:47:40;;;;;;;8.77;4.97;;;;;;;;;;8501816;27;20509;-81
2023/07/30 20:51:43;;;;;;;8.95;5.25;;;;;;;;;;8502057;27;20062;-92
2023/07/30 20:55:49;;;;;;;6.70;5.18;;;;;;;;;;8488272;27;20134;-85
2023/07/30 20:59:53;;;;;;;9.07;5.47;;;;;;;;;;8502222;27;20508;-84
2023/07/30 21:03:56;;;;;;;9.02;6.45;;;;;;;;;;8501639;27;20054;-92
2023/07/30 21:07:59;;;;;;;6.25;5.00;;;;;;;;;;8493129;27;20047;-83
2023/07/30 21:12:03;;;;;;;8.57;5.97;;;;;;;;;;8481371;27;20542;-92
2023/07/30 21:16:08;;;;;;;10.02;6.32;;;;;;;;;;8476971;27;20067;-83
2023/07/30 21:20:11;;;;;;;9.07;6.70;;;;;;;;;;8487147;27;20557;-93
2023/07/30 21:24:14;;;;;;;9.07;6.18;;;;;;;;;;8500995;27;20051;-92
2023/07/30 21:28:17;;;;;;;9.02;5.75;;;;;;;;;;8500850;27;20107;-83
2023/07/30 21:32:21;;;;;;;8.02;6.00;;;;;;;;;;8501578;27;20398;-92
2023/07/30 21:36:23;;;;;;;7.60;6.10;;;;;;;;;;8472124;27;20056;-92
2023/07/30 21:40:26;;;;;;;9.57;5.70;;;;;;;;;;8499912;27;20043;-89
2023/07/30 21:44:29;;;;;;;9.23;5.93;;;;;;;;;;8493082;27;20047;-93
2023/07/30 21:48:34;;;;;;;7.68;5.28;;;;;;;;;;8488867;27;20054;-94
2023/07/30 21:52:37;;;;;;;7.28;5.40;;;;;;;;;;8486594;27;20071;-91
2023/07/30 21:56:40;;;;;;;6.53;5.43;;;;;;;;;;8485740;27;20176;-82
2023/07/30 22:00:48;;;;;;;8.20;5.55;;;;;;;;;;8494249;27;20095;-89
2023/07/30 22:04:52;;;;;;;7.80;5.82;;;;;;;;;;8490551;27;20043;-93
2023/07/30 22:08:55;;;;;;;7.20;5.38;;;;;;;;;;8476514;27;20139;-81
2023/07/30 22:12:58;;;;;;;9.10;5.45;;;;;;;;;;8499173;27;20127;-90
2023/07/30 22:17:01;;;;;;;9.55;6.13;;;;;;;;;;8492956;27;20561;-93
2023/07/30 22:21:05;;;;;;;10.43;6.32;;;;;;;;;;8475514;27;20483;-82
2023/07/30 22:25:08;;;;;;;9.95;6.95;;;;;;;;;;8488282;27;20130;-92
2023/07/30 22:29:11;;;;;;;11.52;6.93;;;;;;;;;;8498024;27;20035;-85
2023/07/30 22:33:14;;;;;;;9.73;6.45;;;;;;;;;;8489615;27;20063;-85
2023/07/30 22:37:18;;;;;;;9.18;6.32;;;;;;;;;;8486384;27;20390;-94
2023/07/30 22:41:21;;;;;;;8.25;6.43;;;;;;;;;;8494893;27;20053;-92
2023/07/30 22:45:24;;;;;;;9.07;5.75;;;;;;;;;;8485310;27;20474;-84
2023/07/30 22:49:26;;;;;;;9.68;6.00;;;;;;;;;;8491688;27;20047;-90
2023/07/30 22:53:31;;;;;;;9.43;6.10;;;;;;;;;;8498535;27;20073;-81
2023/07/30 22:57:34;;;;;;;8.98;6.22;;;;;;;;;;8498604;27;20092;-81
2023/07/30 23:01:36;;;;;;;9.85;6.05;;;;;;;;;;8472557;27;20050;-93
2023/07/30 23:05:39;;;;;;;7.07;5.20;;;;;;;;;;8497896;27;20445;-82
2023/07/30 23:09:43;;;;;;;6.13;4.90;;;;;;;;;;8498051;27;20039;-87
2023/07/30 23:13:46;;;;;;;7.10;5.72;;;;;;;;;;8483662;27;20040;-89
2023/07/30 23:17:49;;;;;;;8.10;5.32;;;;;;;;;;8489531;27;20463;-87
2023/07/30 23:21:52;;;;;;;7.13;5.22;;;;;;;;;;8479736;28;20048;-94
2023/07/30 23:25:56;;;;;;;6.65;4.72;;;;;;;;;;8486833;28;20530;-81
2023/07/30 23:29:59;;;;;;;7.78;5.03;;;;;;;;;;8480714;28;20051;-82
2023/07/30 23:34:02;;;;;;;7.38;4.60;;;;;;;;;;8480567;28;20122;-91
2023/07/30 23:38:05;;;;;;;9.52;4.78;;;;;;;;;;8490693;28;20041;-93
2023/07/30 23:42:09;;;;;;;6.53;5.32;;;;;;;;;;8492854;28;20039;-94
2023/07/30 23:46:12;;;;;;;6.90;4.72;;;;;;;;;;8470634;28;20047;-94
2023/07/30 23:50:15;;;;;;;10.70;5.05;;;;;;;;;;8485565;28;20067;-88
2023/07/30 23:54:18;;;;;;;6.85;4.80;;;;;;;;;;8482111;28;20047;-91
2023/07/30 23:58:22;;;;;;;7.15;5.03;;;;;;;;;;8495010;28;20126;-91
